Time;durP1;ratioP1;P1;durP2;ratioP2;P2;SDS_P1;SDS_P2;PMS_P1;PMS_P2;Temp;Humidity;BMP_temperature;BMP_pressure;BME280_temperature;BME280_humidity;BME280_pressure;Samples;Min_cycle;Max_cycle;Signal;HPM_P1;HPM_P2
2022/06/28 00:00:42;;;;;;;0.53;0.53;;;22.80;74.40;;;;;;5051285;28;46351;-71
2022/06/28 00:03:10;;;;;;;0.80;0.80;;;22.90;73.90;;;;;;5068985;28;43939;-70
2022/06/28 00:05:38;;;;;;;0.70;0.70;;;23.00;74.20;;;;;;5069984;28;43991;-71
2022/06/28 00:08:06;;;;;;;0.60;0.60;;;23.20;73.00;;;;;;5051791;28;43851;-70
2022/06/28 00:10:34;;;;;;;0.80;0.80;;;23.30;72.50;;;;;;5069461;28;43846;-70
2022/06/28 00:13:04;;;;;;;0.70;0.70;;;23.40;72.10;;;;;;5050881;28;44277;-70
2022/06/28 00:18:17;;;;;;;0.70;0.70;;;23.60;71.40;;;;;;5068803;28;44082;-71
2022/06/28 00:20:45;;;;;;;0.63;0.63;;;23.70;71.10;;;;;;5069282;28;43790;-71
2022/06/28 00:23:13;;;;;;;0.73;0.73;;;23.70;70.80;;;;;;5069480;28;43963;-71
2022/06/28 00:25:41;;;;;;;0.80;0.80;;;23.80;70.60;;;;;;5069698;28;43387;-71
2022/06/28 00:28:11;;;;;;;0.80;0.80;;;23.70;70.90;;;;;;5069795;28;44099;-71
2022/06/28 00:30:39;;;;;;;0.70;0.70;;;23.60;71.20;;;;;;5050921;28;45801;-70
2022/06/28 00:33:07;;;;;;;0.80;0.80;;;23.40;71.60;;;;;;5051038;28;44368;-71
2022/06/28 00:35:35;;;;;;;0.70;0.70;;;23.20;71.80;;;;;;5037680;28;43978;-71
2022/06/28 00:38:03;;;;;;;0.73;0.73;;;23.10;72.30;;;;;;5069187;28;43361;-71
2022/06/28 00:40:31;;;;;;;0.80;0.80;;;23.00;72.70;;;;;;5050045;28;45825;-71
2022/06/28 00:42:59;;;;;;;0.63;0.63;;;22.80;73.00;;;;;;5068887;28;44016;-71
2022/06/28 00:45:28;;;;;;;0.70;0.70;;;22.80;73.30;;;;;;5068544;28;43842;-71
2022/06/28 00:47:57;;;;;;;0.73;0.73;;;22.70;73.50;;;;;;5050593;28;44060;-70
2022/06/28 00:50:25;;;;;;;0.63;0.63;;;22.60;73.70;;;;;;5050076;28;45683;-70
2022/06/28 00:53:00;;;;;;;0.60;0.60;;;22.60;73.80;;;;;;5049648;28;45002;-71
2022/06/28 00:55:28;;;;;;;0.70;0.70;;;22.60;74.00;;;;;;5050251;28;44003;-70
2022/06/28 00:57:56;;;;;;;0.60;0.60;;;22.60;74.10;;;;;;5068703;28;43436;-70
2022/06/28 01:00:24;;;;;;;0.70;0.70;;;22.50;74.10;;;;;;5067891;28;44211;-69
2022/06/28 01:02:54;;;;;;;0.70;0.70;;;22.50;74.20;;;;;;5066966;28;43881;-70
2022/06/28 01:05:22;;;;;;;0.80;0.80;;;22.50;74.30;;;;;;5067632;28;43919;-71
2022/06/28 01:07:50;;;;;;;0.80;0.80;;;22.50;74.30;;;;;;5049245;28;44263;-70
2022/06/28 01:10:18;;;;;;;0.60;0.60;;;22.50;74.30;;;;;;5067372;28;43964;-70
2022/06/28 01:12:46;;;;;;;0.70;0.70;;;22.40;74.80;;;;;;5048847;28;45037;-69
2022/06/28 01:15:14;;;;;;;0.70;0.70;;;22.50;75.10;;;;;;5067463;28;43910;-69
2022/06/28 01:17:54;;;;;;;0.80;0.80;;;22.50;74.80;;;;;;5048778;28;44037;-70
2022/06/28 01:20:34;;;;;;;0.63;0.63;;;22.70;74.50;;;;;;5048802;28;45628;-70
2022/06/28 01:23:11;;;;;;;0.70;0.70;;;22.90;74.00;;;;;;5029613;28;43990;-70
2022/06/28 01:25:40;;;;;;;0.70;0.70;;;23.00;73.40;;;;;;5067295;28;44075;-70
2022/06/28 01:28:08;;;;;;;0.60;0.60;;;23.10;72.80;;;;;;5048936;28;43616;-70
2022/06/28 01:30:38;;;;;;;0.60;0.60;;;23.30;72.50;;;;;;5048608;28;43930;-69
2022/06/28 01:33:16;;;;;;;0.60;0.60;;;23.40;72.00;;;;;;5048406;28;43469;-69
2022/06/28 01:35:44;;;;;;;0.77;0.77;;;23.50;71.60;;;;;;5048515;28;43496;-70
2022/06/28 01:38:13;;;;;;;0.67;0.67;;;23.60;71.30;;;;;;5035405;28;43788;-70
2022/06/28 01:40:45;;;;;;;0.80;0.80;;;23.60;71.00;;;;;;5066657;28;44064;-69
2022/06/28 01:43:16;;;;;;;0.80;0.80;;;23.60;71.20;;;;;;5048428;28;44701;-71
2022/06/28 01:45:44;;;;;;;0.70;0.70;;;23.50;71.50;;;;;;5048637;28;44081;-70
2022/06/28 01:48:12;;;;;;;0.67;0.67;;;23.30;71.60;;;;;;5048704;28;43553;-70
2022/06/28 01:50:57;;;;;;;0.80;0.80;;;23.10;71.90;;;;;;5048504;28;43843;-69
2022/06/28 01:53:26;;;;;;;0.70;0.70;;;23.00;72.50;;;;;;5028866;28;44017;-69
2022/06/28 01:56:01;;;;;;;0.63;0.63;;;22.90;72.90;;;;;;5042567;28;43975;-69
2022/06/28 01:58:55;;;;;;;0.70;0.70;;;22.80;73.30;;;;;;5062535;28;43446;-70
2022/06/28 02:01:28;;;;;;;0.80;0.80;;;22.70;73.50;;;;;;5066404;28;43925;-70
2022/06/28 02:03:57;;;;;;;0.87;0.87;;;22.60;73.70;;;;;;5030194;28;44002;-70
2022/06/28 02:06:36;;;;;;;0.87;0.87;;;22.60;73.90;;;;;;5045356;28;43351;-70
2022/06/28 02:09:10;;;;;;;0.90;0.90;;;22.50;74.00;;;;;;5039534;28;44067;-70
2022/06/28 02:11:44;;;;;;;0.90;0.90;;;22.50;74.10;;;;;;5047987;28;45516;-70
2022/06/28 02:14:15;;;;;;;0.70;0.70;;;22.50;74.30;;;;;;5047885;28;45569;-69
2022/06/28 02:16:43;;;;;;;0.70;0.70;;;22.50;75.10;;;;;;5048298;28;43989;-70
2022/06/28 02:19:12;;;;;;;0.80;0.80;;;22.50;75.10;;;;;;5048238;28;44052;-70
2022/06/28 02:21:43;;;;;;;0.70;0.70;;;22.60;74.80;;;;;;5047960;28;43972;-70
2022/06/28 02:24:14;;;;;;;0.80;0.80;;;22.70;74.40;;;;;;5047763;28;45071;-70
2022/06/28 02:26:42;;;;;;;0.80;0.80;;;22.80;74.00;;;;;;5047911;28;43935;-69
2022/06/28 02:29:10;;;;;;;0.77;0.77;;;23.00;73.60;;;;;;5066579;28;44071;-69
2022/06/28 02:31:38;;;;;;;0.80;0.80;;;23.10;73.00;;;;;;5066336;28;43939;-69
2022/06/28 02:34:06;;;;;;;0.70;0.70;;;23.20;72.50;;;;;;5047704;28;44738;-70
2022/06/28 02:42:07;;;;;;;0.70;0.70;;;23.60;71.30;;;;;;5051291;28;45916;-69
2022/06/28 02:44:35;;;;;;;0.80;0.80;;;23.60;70.80;;;;;;5069722;28;44289;-69
2022/06/28 02:47:03;;;;;;;0.80;0.80;;;23.70;70.70;;;;;;5069739;28;43408;-70
2022/06/28 02:49:34;;;;;;;0.80;0.80;;;23.60;70.80;;;;;;5069951;28;43953;-69
2022/06/28 02:52:01;;;;;;;0.90;0.90;;;23.50;71.20;;;;;;5069664;28;44995;-71
2022/06/28 02:54:31;;;;;;;0.80;0.80;;;23.40;71.60;;;;;;5069808;28;43988;-69
2022/06/28 02:56:59;;;;;;;0.60;0.60;;;23.10;71.90;;;;;;5069853;28;43901;-69
2022/06/28 02:59:27;;;;;;;0.80;0.80;;;23.00;72.30;;;;;;5051616;28;43585;-70
2022/06/28 03:01:55;;;;;;;0.90;0.90;;;22.90;72.80;;;;;;5050627;28;45992;-70
2022/06/28 03:04:23;;;;;;;0.80;0.80;;;22.80;73.10;;;;;;5051084;28;44327;-70
2022/06/28 03:06:51;;;;;;;0.80;0.80;;;22.70;73.40;;;;;;5069436;28;44000;-69
2022/06/28 03:09:19;;;;;;;0.90;0.90;;;22.60;73.60;;;;;;5051190;28;44017;-69
2022/06/28 03:11:49;;;;;;;0.73;0.73;;;22.60;73.80;;;;;;5050811;28;45813;-70
2022/06/28 03:14:17;;;;;;;0.77;0.77;;;22.50;73.90;;;;;;5068950;28;43702;-71
2022/06/28 03:16:45;;;;;;;0.67;0.67;;;22.50;74.10;;;;;;5069397;28;43435;-70
2022/06/28 03:19:13;;;;;;;0.80;0.80;;;22.40;74.10;;;;;;5050964;28;43947;-70
2022/06/28 03:21:41;;;;;;;0.80;0.80;;;22.40;74.20;;;;;;5068966;28;43905;-70
2022/06/28 03:24:09;;;;;;;0.80;0.80;;;22.40;74.20;;;;;;5050657;28;44029;-70
2022/06/28 03:26:38;;;;;;;0.80;0.80;;;22.40;74.30;;;;;;5050745;28;43927;-70
2022/06/28 03:29:07;;;;;;;0.80;0.80;;;22.40;74.30;;;;;;5068982;28;43928;-70
2022/06/28 03:31:35;;;;;;;0.90;0.90;;;22.40;74.30;;;;;;5050664;28;45539;-69
2022/06/28 03:34:04;;;;;;;0.80;0.80;;;22.30;74.40;;;;;;5050422;28;43783;-70
2022/06/28 03:36:33;;;;;;;0.77;0.77;;;22.40;75.10;;;;;;5050679;28;44088;-70
2022/06/28 03:39:19;;;;;;;0.93;0.93;;;22.40;75.00;;;;;;5050662;28;44085;-70
2022/06/28 03:41:51;;;;;;;0.90;0.90;;;22.60;74.80;;;;;;5050643;28;46422;-69
2022/06/28 03:44:20;;;;;;;0.80;0.80;;;22.70;74.30;;;;;;5050892;28;45771;-69
2022/06/28 03:46:48;;;;;;;1.00;1.00;;;22.80;73.70;;;;;;5069060;28;43326;-70
2022/06/28 03:49:35;;;;;;;0.80;0.80;;;23.00;73.20;;;;;;5065927;28;43914;-69
2022/06/28 03:52:17;;;;;;;1.00;1.00;;;23.10;72.60;;;;;;5032246;28;44061;-70
2022/06/28 03:55:06;;;;;;;0.90;0.90;;;23.30;72.20;;;;;;5066842;28;44037;-70
2022/06/28 03:57:41;;;;;;;0.70;0.70;;;23.40;71.70;;;;;;5044710;28;44028;-70
2022/06/28 04:00:14;;;;;;;0.80;0.80;;;23.50;71.40;;;;;;5050577;28;43868;-69
2022/06/28 04:02:47;;;;;;;1.00;1.00;;;23.50;71.00;;;;;;5046354;28;43992;-70
2022/06/28 04:05:21;;;;;;;1.00;1.00;;;23.50;71.00;;;;;;5048279;28;44000;-68
2022/06/28 04:07:49;;;;;;;0.93;0.93;;;23.40;71.20;;;;;;5046966;28;43898;-69
2022/06/28 04:10:21;;;;;;;1.00;1.00;;;23.30;71.60;;;;;;5047042;28;43574;-69
2022/06/28 04:12:52;;;;;;;0.87;0.87;;;23.10;71.90;;;;;;5029581;28;44765;-69
2022/06/28 04:15:24;;;;;;;0.93;0.93;;;23.00;72.40;;;;;;5044455;28;43982;-70
2022/06/28 04:18:02;;;;;;;0.70;0.70;;;22.80;72.70;;;;;;5046815;28;44067;-70
2022/06/28 04:20:41;;;;;;;0.70;0.70;;;22.70;73.10;;;;;;5045430;28;43935;-70
2022/06/28 04:23:11;;;;;;;0.80;0.80;;;22.60;73.50;;;;;;5046630;28;44097;-71
2022/06/28 04:25:40;;;;;;;0.83;0.83;;;22.50;73.70;;;;;;5032972;28;44084;-71
2022/06/28 04:28:19;;;;;;;0.70;0.70;;;22.50;73.80;;;;;;5046670;28;44063;-70
2022/06/28 04:31:01;;;;;;;0.97;0.97;;;22.40;73.90;;;;;;5046937;28;44361;-70
2022/06/28 04:33:30;;;;;;;0.80;0.80;;;22.40;74.10;;;;;;5046466;28;44195;-71
2022/06/28 04:35:58;;;;;;;0.80;0.80;;;22.40;74.20;;;;;;5046664;28;45143;-70
2022/06/28 04:38:28;;;;;;;0.90;0.90;;;22.40;74.30;;;;;;5046589;28;44007;-68
2022/06/28 04:41:03;;;;;;;1.00;1.00;;;22.30;74.80;;;;;;5046461;28;43432;-69
2022/06/28 04:43:47;;;;;;;0.90;0.90;;;22.30;75.00;;;;;;5046155;28;44828;-69
2022/06/28 04:46:22;;;;;;;0.80;0.80;;;22.40;74.80;;;;;;5046423;28;44071;-69
2022/06/28 04:48:52;;;;;;;0.77;0.77;;;22.50;74.50;;;;;;5046184;28;44026;-69
2022/06/28 04:51:27;;;;;;;0.80;0.80;;;22.70;74.00;;;;;;5046847;28;43965;-70
2022/06/28 04:53:55;;;;;;;0.93;0.93;;;22.80;73.50;;;;;;5045942;28;44037;-70
2022/06/28 04:56:24;;;;;;;0.90;0.90;;;23.00;72.90;;;;;;5029082;28;44671;-69
2022/06/28 04:58:52;;;;;;;1.20;1.03;;;23.10;72.60;;;;;;5043600;28;44084;-69
2022/06/28 05:01:22;;;;;;;0.80;0.80;;;23.20;72.10;;;;;;5046405;28;44400;-69
2022/06/28 05:03:50;;;;;;;0.80;0.80;;;23.30;71.60;;;;;;5045622;28;45605;-69
2022/06/28 05:06:37;;;;;;;0.80;0.80;;;23.40;71.30;;;;;;5044840;28;43937;-70
2022/06/28 05:09:06;;;;;;;0.87;0.87;;;23.50;71.00;;;;;;5040018;28;44030;-68
2022/06/28 05:11:55;;;;;;;0.93;0.93;;;23.60;70.80;;;;;;5046186;28;43399;-69
2022/06/28 05:14:29;;;;;;;1.00;1.00;;;23.50;70.70;;;;;;5028651;28;43605;-69
2022/06/28 05:16:59;;;;;;;0.87;0.87;;;23.40;71.10;;;;;;5043574;28;43575;-69
2022/06/28 05:19:27;;;;;;;0.80;0.80;;;23.30;71.60;;;;;;5045774;28;43905;-69
2022/06/28 05:21:55;;;;;;;1.10;1.10;;;23.10;72.50;;;;;;5046215;28;43965;-70
2022/06/28 05:24:24;;;;;;;0.80;0.80;;;22.90;72.20;;;;;;5045668;28;45411;-70
2022/06/28 05:26:59;;;;;;;1.00;1.00;;;22.80;72.70;;;;;;5046168;28;43367;-69
2022/06/28 05:29:31;;;;;;;1.00;1.00;;;22.70;73.00;;;;;;5046087;28;43437;-69
2022/06/28 05:32:00;;;;;;;0.90;0.90;;;22.60;73.30;;;;;;5046121;28;43984;-70
2022/06/28 05:34:29;;;;;;;0.90;0.90;;;22.50;74.20;;;;;;5045260;28;45350;-70
2022/06/28 05:36:57;;;;;;;0.90;0.90;;;22.50;73.70;;;;;;5047066;28;44000;-70
2022/06/28 05:39:25;;;;;;;1.20;1.20;;;22.40;73.80;;;;;;5026178;28;43489;-70
2022/06/28 05:41:53;;;;;;;1.40;1.27;;;22.40;74.00;;;;;;5047243;28;43876;-70
2022/06/28 05:44:21;;;;;;;0.90;0.90;;;22.40;74.10;;;;;;5045192;28;45843;-69
2022/06/28 05:46:50;;;;;;;0.90;0.90;;;22.40;74.10;;;;;;5045202;28;44692;-69
2022/06/28 05:49:20;;;;;;;0.90;0.90;;;22.40;74.30;;;;;;5045448;28;43968;-70
2022/06/28 05:51:48;;;;;;;1.00;1.00;;;22.30;74.10;;;;;;5047151;28;43423;-69
2022/06/28 05:54:16;;;;;;;0.97;0.97;;;22.30;74.20;;;;;;5045022;28;45736;-70
2022/06/28 05:56:44;;;;;;;1.00;1.00;;;22.30;74.20;;;;;;5025168;28;43754;-70
2022/06/28 05:59:13;;;;;;;0.90;0.90;;;22.30;74.60;;;;;;5040409;28;43944;-69
2022/06/28 06:01:41;;;;;;;0.90;0.90;;;22.30;75.00;;;;;;5035472;28;43986;-69
2022/06/28 06:04:09;;;;;;;1.07;1.07;;;22.30;74.80;;;;;;5039942;28;44017;-70
2022/06/28 06:06:38;;;;;;;1.00;1.00;;;22.50;74.70;;;;;;5035309;28;45213;-70
2022/06/28 06:09:07;;;;;;;0.90;0.90;;;22.60;74.20;;;;;;5025252;28;43445;-69
2022/06/28 06:11:35;;;;;;;0.97;0.97;;;22.70;73.70;;;;;;5045367;28;43351;-69
2022/06/28 06:14:03;;;;;;;1.00;1.00;;;22.90;73.10;;;;;;5046439;28;44016;-69
2022/06/28 06:16:31;;;;;;;1.10;1.10;;;23.10;73.50;;;;;;5048845;28;43949;-70
2022/06/28 06:18:59;;;;;;;0.90;0.90;;;23.20;72.30;;;;;;5048804;28;43993;-69
2022/06/28 06:21:28;;;;;;;0.90;0.90;;;23.30;71.90;;;;;;5049014;28;43920;-70
2022/06/28 06:23:58;;;;;;;1.00;1.00;;;23.40;71.60;;;;;;5048488;28;44045;-69
2022/06/28 06:26:55;;;;;;;0.90;0.90;;;23.40;71.20;;;;;;5035553;28;43598;-70
2022/06/28 06:29:23;;;;;;;1.07;1.07;;;23.50;71.10;;;;;;5048497;28;43975;-70
2022/06/28 06:31:51;;;;;;;1.10;1.10;;;23.40;71.20;;;;;;5048667;28;44077;-69
2022/06/28 06:34:55;;;;;;;0.90;0.90;;;23.30;71.60;;;;;;5049091;28;43986;-70
2022/06/28 06:37:23;;;;;;;1.03;1.03;;;23.10;71.90;;;;;;5034774;28;43993;-70
2022/06/28 06:39:52;;;;;;;0.90;0.90;;;22.90;72.10;;;;;;5048094;28;44088;-71
2022/06/28 06:42:20;;;;;;;1.10;1.10;;;22.80;72.50;;;;;;5035252;28;44025;-70
2022/06/28 06:44:48;;;;;;;1.10;1.10;;;22.70;73.00;;;;;;5049336;28;44036;-69
2022/06/28 06:47:16;;;;;;;1.00;1.00;;;22.60;73.20;;;;;;5049281;28;43943;-70
2022/06/28 06:49:44;;;;;;;0.90;0.90;;;22.60;73.60;;;;;;5049603;28;43325;-70
2022/06/28 06:52:12;;;;;;;1.00;1.00;;;22.50;73.70;;;;;;5049984;28;43967;-70
2022/06/28 06:54:44;;;;;;;1.00;1.00;;;22.50;73.90;;;;;;5047814;28;46758;-69
2022/06/28 06:57:13;;;;;;;0.90;0.90;;;22.40;74.00;;;;;;5047706;28;45150;-69
2022/06/28 06:59:42;;;;;;;0.90;0.90;;;22.40;74.10;;;;;;5049378;28;43939;-70
2022/06/28 07:02:10;;;;;;;1.00;1.00;;;22.40;74.30;;;;;;5048246;28;43471;-70
2022/06/28 07:04:47;;;;;;;0.90;0.90;;;22.30;74.20;;;;;;5047788;28;45039;-70
2022/06/28 07:07:15;;;;;;;0.80;0.80;;;22.30;74.30;;;;;;5049143;28;43977;-69
2022/06/28 07:09:43;;;;;;;1.00;1.00;;;22.30;74.30;;;;;;5047615;28;44079;-70
2022/06/28 07:12:12;;;;;;;0.80;0.80;;;22.30;74.40;;;;;;5048138;28;44015;-70
2022/06/28 07:14:43;;;;;;;0.97;0.97;;;22.30;74.50;;;;;;5047703;28;44053;-70
2022/06/28 07:17:13;;;;;;;1.00;1.00;;;22.30;75.10;;;;;;5047755;28;45173;-69
2022/06/28 07:19:42;;;;;;;0.83;0.83;;;22.30;75.00;;;;;;5047711;28;43909;-70
2022/06/28 07:22:10;;;;;;;1.10;1.10;;;22.40;74.80;;;;;;5047710;28;44151;-70
2022/06/28 07:24:41;;;;;;;1.00;1.00;;;22.50;74.40;;;;;;5047355;28;43863;-69
2022/06/28 07:27:10;;;;;;;1.00;1.00;;;22.70;74.00;;;;;;5037474;28;44570;-69
2022/06/28 07:29:40;;;;;;;0.90;0.90;;;22.80;73.50;;;;;;5042732;28;43964;-70
2022/06/28 07:32:08;;;;;;;1.00;1.00;;;23.00;73.00;;;;;;5047777;28;43848;-69
2022/06/28 07:34:37;;;;;;;0.87;0.87;;;23.10;72.50;;;;;;5041101;28;43779;-70
2022/06/28 07:37:05;;;;;;;0.90;0.90;;;23.20;72.10;;;;;;5048664;28;43970;-71
2022/06/28 07:39:35;;;;;;;0.80;0.80;;;23.30;71.70;;;;;;5047093;28;43414;-69
2022/06/28 07:42:23;;;;;;;1.67;1.00;;;23.40;71.60;;;;;;5017148;28;44019;-70
2022/06/28 07:45:15;;;;;;;1.47;1.00;;;23.40;70.60;;;;;;5048082;28;44052;-70
2022/06/28 07:47:47;;;;;;;5.40;1.43;;;23.40;68.20;;;;;;5046960;28;43377;-69
2022/06/28 07:53:02;;;;;;;15.43;1.70;;;23.20;69.20;;;;;;5048831;28;43985;-70
2022/06/28 07:55:45;;;;;;;1.80;1.10;;;23.00;71.10;;;;;;5046819;28;45229;-69
2022/06/28 07:58:30;;;;;;;1.93;1.37;;;22.90;71.20;;;;;;5047055;28;44056;-69
2022/06/28 08:01:00;;;;;;;6.00;1.40;;;22.70;71.70;;;;;;5048049;28;43970;-70
2022/06/28 08:03:28;;;;;;;2.30;1.40;;;22.60;72.10;;;;;;5050686;28;43516;-69
2022/06/28 08:05:57;;;;;;;1.27;1.23;;;22.50;72.40;;;;;;5050393;28;44952;-70
2022/06/28 08:08:32;;;;;;;3.10;1.53;;;22.50;72.80;;;;;;5050064;28;43921;-68
2022/06/28 08:11:00;;;;;;;3.53;1.60;;;22.40;73.00;;;;;;5050549;28;44025;-70
2022/06/28 08:13:30;;;;;;;3.17;1.63;;;22.40;73.20;;;;;;5050618;28;44112;-69
2022/06/28 08:16:01;;;;;;;3.43;1.73;;;22.40;73.40;;;;;;5050021;28;45948;-70
2022/06/28 08:18:29;;;;;;;3.20;1.50;;;22.30;73.50;;;;;;5050060;28;44639;-69
2022/06/28 08:20:57;;;;;;;2.67;1.57;;;22.30;73.50;;;;;;5050226;28;43945;-69
2022/06/28 08:23:25;;;;;;;3.63;1.30;;;22.30;73.60;;;;;;5050203;28;44096;-69
2022/06/28 08:25:54;;;;;;;2.33;1.50;;;22.30;73.70;;;;;;5049785;28;44063;-69
2022/06/28 08:28:22;;;;;;;3.17;1.60;;;22.30;73.80;;;;;;5049656;28;44993;-69
2022/06/28 08:30:50;;;;;;;3.13;1.60;;;22.30;74.00;;;;;;5049709;28;43971;-69
2022/06/28 08:33:19;;;;;;;4.43;1.77;;;22.30;74.50;;;;;;5049863;28;44083;-69
2022/06/28 08:35:47;;;;;;;2.47;1.50;;;22.30;74.50;;;;;;5049604;28;46646;-69
2022/06/28 08:38:15;;;;;;;2.03;1.43;;;22.40;74.30;;;;;;5067158;28;43988;-70
2022/06/28 08:40:44;;;;;;;1.70;1.40;;;22.50;73.80;;;;;;5068110;28;43495;-69
2022/06/28 08:43:12;;;;;;;2.27;1.43;;;22.70;73.40;;;;;;5068268;28;43988;-69
2022/06/28 08:45:39;;;;;;;2.30;1.50;;;22.80;72.90;;;;;;5067934;28;43901;-70
2022/06/28 08:48:15;;;;;;;2.83;1.80;;;22.90;72.30;;;;;;5067979;28;43919;-69
2022/06/28 08:50:45;;;;;;;3.17;1.37;;;23.10;71.90;;;;;;5068071;28;43905;-69
2022/06/28 08:53:13;;;;;;;2.30;1.40;;;23.20;71.50;;;;;;5068232;28;44030;-69
2022/06/28 08:55:41;;;;;;;1.47;1.30;;;23.30;71.30;;;;;;5067718;28;43826;-70
2022/06/28 08:58:09;;;;;;;2.23;1.53;;;23.40;71.00;;;;;;5067540;28;44003;-70
2022/06/28 09:00:37;;;;;;;1.83;1.53;;;23.50;70.90;;;;;;5067756;28;43951;-70
2022/06/28 09:03:05;;;;;;;9.97;2.00;;;23.50;70.60;;;;;;5049174;28;43433;-69
2022/06/28 09:05:33;;;;;;;14.63;2.20;;;23.40;69.90;;;;;;5067635;28;44702;-69
2022/06/28 09:08:02;;;;;;;4.83;1.73;;;23.30;69.70;;;;;;5067542;28;43733;-69
2022/06/28 09:10:31;;;;;;;5.90;1.67;;;23.10;70.50;;;;;;5067678;28;44419;-70
2022/06/28 09:13:16;;;;;;;3.40;1.40;;;23.00;71.30;;;;;;5067803;28;43945;-69
2022/06/28 09:15:50;;;;;;;2.83;1.93;;;22.80;71.90;;;;;;5067374;28;43652;-69
2022/06/28 09:18:18;;;;;;;1.90;1.80;;;22.70;72.30;;;;;;5067218;28;43281;-68
2022/06/28 09:20:46;;;;;;;1.73;1.50;;;22.60;72.60;;;;;;5067367;28;43941;-70
2022/06/28 09:23:29;;;;;;;3.77;1.50;;;22.50;72.90;;;;;;5067472;28;43870;-70
2022/06/28 09:25:58;;;;;;;4.40;1.50;;;22.40;73.10;;;;;;5067378;28;43935;-69
2022/06/28 09:28:28;;;;;;;6.33;1.50;;;22.40;73.30;;;;;;5067466;28;43950;-68
2022/06/28 09:31:19;;;;;;;1.87;1.40;;;22.40;73.50;;;;;;5067563;28;44362;-69
2022/06/28 09:33:48;;;;;;;4.87;1.43;;;22.30;73.50;;;;;;5061205;28;43879;-69
2022/06/28 09:36:17;;;;;;;4.37;2.20;;;22.30;73.60;;;;;;5066859;28;43965;-70
2022/06/28 09:38:46;;;;;;;5.97;1.80;;;22.30;73.70;;;;;;5066896;28;43979;-70
2022/06/28 09:41:22;;;;;;;8.53;1.73;;;22.30;73.60;;;;;;5066803;28;43448;-69
2022/06/28 09:43:59;;;;;;;4.80;1.47;;;22.30;73.60;;;;;;5067366;28;43994;-70
2022/06/28 09:46:28;;;;;;;6.43;1.50;;;22.50;73.50;;;;;;5067270;28;44020;-69
2022/06/28 09:48:58;;;;;;;4.00;1.80;;;22.60;73.10;;;;;;5066822;28;44067;-68
2022/06/28 09:51:27;;;;;;;6.63;1.80;;;22.80;72.60;;;;;;5067224;28;43949;-70
2022/06/28 09:53:58;;;;;;;7.07;1.93;;;23.00;72.20;;;;;;5048867;28;43523;-69
2022/06/28 09:56:49;;;;;;;13.50;2.00;;;23.10;71.80;;;;;;5066334;28;44005;-69
2022/06/28 09:59:17;;;;;;;40.00;2.90;;;23.20;71.50;;;;;;5066754;28;43797;-70
2022/06/28 10:01:45;;;;;;;8.17;2.00;;;23.30;69.40;;;;;;5066699;28;44027;-69
2022/06/28 10:04:14;;;;;;;5.53;2.10;;;23.30;69.40;;;;;;5067103;28;44013;-70
2022/06/28 10:06:43;;;;;;;5.70;2.07;;;23.40;69.70;;;;;;5066269;28;43887;-69
2022/06/28 10:09:12;;;;;;;2.20;1.60;;;23.40;69.60;;;;;;5048263;28;45367;-69
2022/06/28 10:17:16;;;;;;;1.40;1.30;;;23.10;70.70;;;;;;5066109;28;43946;-69
2022/06/28 10:19:44;;;;;;;1.83;1.73;;;23.00;71.30;;;;;;5066381;28;44025;-69
2022/06/28 10:22:12;;;;;;;3.77;1.90;;;22.80;71.60;;;;;;5066571;28;43909;-69
2022/06/28 10:24:55;;;;;;;1.83;1.73;;;22.70;72.00;;;;;;5066892;28;44076;-70
2022/06/28 10:27:23;;;;;;;3.03;2.17;;;22.60;72.40;;;;;;5066296;28;43937;-70
2022/06/28 10:30:20;;;;;;;4.40;1.80;;;22.50;72.70;;;;;;5066570;28;43928;-70
2022/06/28 10:32:48;;;;;;;1.50;1.40;;;22.40;73.00;;;;;;5066426;28;44032;-70
2022/06/28 10:36:01;;;;;;;2.27;1.70;;;22.40;73.20;;;;;;5048330;28;44310;-69
2022/06/28 10:38:30;;;;;;;2.33;1.70;;;22.40;73.40;;;;;;5066200;28;43964;-69
2022/06/28 10:41:15;;;;;;;5.60;1.83;;;22.30;73.50;;;;;;5047915;28;44270;-70
2022/06/28 10:43:46;;;;;;;2.97;1.63;;;22.30;73.60;;;;;;5064552;28;43965;-68
2022/06/28 10:46:14;;;;;;;4.47;2.00;;;22.30;74.40;;;;;;5066757;28;43563;-69
2022/06/28 10:49:03;;;;;;;2.73;1.90;;;22.30;74.20;;;;;;5065813;28;44810;-69
2022/06/28 10:51:31;;;;;;;2.17;1.80;;;22.30;74.30;;;;;;5066130;28;43340;-69
2022/06/28 10:54:01;;;;;;;3.67;1.57;;;22.40;73.90;;;;;;5066346;28;44026;-70
2022/06/28 10:56:30;;;;;;;1.80;1.70;;;22.60;73.50;;;;;;5066474;28;43472;-71
2022/06/28 10:58:58;;;;;;;2.30;1.60;;;22.70;73.00;;;;;;5065826;28;43933;-70
2022/06/28 11:01:57;;;;;;;1.73;1.63;;;22.90;72.50;;;;;;5066925;28;43865;-69
2022/06/28 11:04:27;;;;;;;2.60;1.90;;;23.00;72.00;;;;;;5069716;28;43944;-69
2022/06/28 11:06:57;;;;;;;1.97;1.43;;;23.10;71.60;;;;;;5069899;28;43423;-69
2022/06/28 11:09:34;;;;;;;1.83;1.60;;;23.30;71.60;;;;;;5069342;28;43767;-70
2022/06/28 11:12:11;;;;;;;3.07;1.60;;;23.30;71.40;;;;;;5069253;28;43968;-70
2022/06/28 11:14:47;;;;;;;1.47;1.43;;;23.30;71.10;;;;;;5069429;28;43328;-70
2022/06/28 11:17:16;;;;;;;1.70;1.60;;;23.40;71.20;;;;;;5069429;28;43980;-70
2022/06/28 11:19:52;;;;;;;1.60;1.50;;;23.30;71.40;;;;;;5069140;28;43935;-71
2022/06/28 11:22:21;;;;;;;2.47;1.47;;;23.10;71.60;;;;;;5069113;28;43965;-70
2022/06/28 11:24:49;;;;;;;1.70;1.60;;;22.90;72.80;;;;;;5068907;28;44037;-69
2022/06/28 11:27:21;;;;;;;3.20;1.77;;;22.80;72.60;;;;;;5069183;28;43345;-69
2022/06/28 11:29:51;;;;;;;1.53;1.43;;;22.70;73.10;;;;;;5069065;28;44033;-69
2022/06/28 11:32:20;;;;;;;2.20;1.40;;;22.60;73.40;;;;;;5068903;28;44023;-69
2022/06/28 11:34:55;;;;;;;2.33;1.60;;;22.50;73.70;;;;;;5069106;28;44003;-70
2022/06/28 11:37:23;;;;;;;1.53;1.33;;;22.50;74.00;;;;;;5068885;28;44104;-70
2022/06/28 11:39:53;;;;;;;1.50;1.40;;;22.40;74.10;;;;;;5068711;28;43988;-70
2022/06/28 11:42:22;;;;;;;1.60;1.50;;;22.40;74.30;;;;;;5068834;28;43881;-70
2022/06/28 11:44:51;;;;;;;1.93;1.77;;;22.40;74.40;;;;;;5069068;28;43387;-70
2022/06/28 11:47:20;;;;;;;2.17;1.70;;;22.30;74.50;;;;;;5069057;28;43837;-69
2022/06/28 11:50:09;;;;;;;3.03;1.90;;;22.30;74.60;;;;;;5069063;28;44793;-69
2022/06/28 11:52:46;;;;;;;2.50;2.07;;;22.30;75.00;;;;;;5039818;28;44568;-69
2022/06/28 11:55:14;;;;;;;2.43;2.00;;;22.40;74.90;;;;;;5069086;28;43293;-68
2022/06/28 11:57:44;;;;;;;3.43;2.50;;;22.40;74.50;;;;;;5050872;28;43897;-69
2022/06/28 12:00:14;;;;;;;2.50;2.27;;;22.60;74.20;;;;;;5068866;28;43604;-69
2022/06/28 12:02:44;;;;;;;3.70;2.73;;;22.70;73.70;;;;;;5050286;28;44777;-70
2022/06/28 12:05:13;;;;;;;4.37;2.87;;;22.90;73.20;;;;;;5069025;28;43282;-70
2022/06/28 12:07:41;;;;;;;3.93;2.63;;;23.00;72.70;;;;;;5068938;28;43808;-69
2022/06/28 12:10:22;;;;;;;3.77;2.60;;;23.10;72.10;;;;;;5068234;28;44984;-70
2022/06/28 12:12:52;;;;;;;4.90;2.93;;;23.20;71.80;;;;;;5048969;28;44345;-70
2022/06/28 12:15:27;;;;;;;3.27;2.50;;;23.30;71.60;;;;;;5068529;28;43357;-70
2022/06/28 12:17:57;;;;;;;4.17;2.90;;;23.40;71.20;;;;;;5068503;28;44045;-69
2022/06/28 12:20:25;;;;;;;4.70;2.97;;;23.40;71.20;;;;;;5068330;28;43963;-70
2022/06/28 12:23:00;;;;;;;2.77;2.53;;;23.50;70.70;;;;;;5050005;28;44707;-70
2022/06/28 12:25:28;;;;;;;2.63;2.43;;;23.50;70.90;;;;;;5068659;28;43447;-70
2022/06/28 12:27:58;;;;;;;2.97;2.53;;;23.40;71.00;;;;;;5068784;28;44307;-69
2022/06/28 12:30:26;;;;;;;4.23;2.50;;;23.30;71.40;;;;;;5068196;28;43981;-70
2022/06/28 12:32:58;;;;;;;2.63;2.43;;;23.10;71.80;;;;;;5068505;28;43999;-69
2022/06/28 12:35:26;;;;;;;3.00;2.57;;;22.90;72.20;;;;;;5047351;28;44005;-69
2022/06/28 12:37:55;;;;;;;2.60;2.40;;;22.80;72.60;;;;;;5050030;28;44105;-69
2022/06/28 12:40:24;;;;;;;2.43;2.20;;;22.70;73.00;;;;;;5049227;28;45890;-70
2022/06/28 12:42:52;;;;;;;2.97;2.53;;;22.60;73.30;;;;;;5068060;28;43940;-70
2022/06/28 12:45:22;;;;;;;2.80;2.60;;;22.60;73.50;;;;;;5067900;28;43956;-69
2022/06/28 12:47:50;;;;;;;2.63;2.40;;;22.50;73.70;;;;;;5067920;28;43786;-69
2022/06/28 12:50:18;;;;;;;2.50;2.30;;;22.50;73.80;;;;;;5067611;28;44019;-69
2022/06/28 12:52:46;;;;;;;2.87;2.57;;;22.40;73.90;;;;;;5067747;28;43385;-70
2022/06/28 12:55:14;;;;;;;3.27;2.97;;;22.40;74.00;;;;;;5068004;28;43983;-70
2022/06/28 12:57:42;;;;;;;2.60;2.40;;;22.40;74.10;;;;;;5067984;28;44008;-69
2022/06/28 13:00:12;;;;;;;2.60;2.40;;;22.40;74.20;;;;;;5067300;28;43876;-70
2022/06/28 13:02:41;;;;;;;2.50;2.33;;;22.40;74.30;;;;;;5067128;28;43914;-69
2022/06/28 13:05:10;;;;;;;2.60;2.40;;;22.30;74.20;;;;;;5067772;28;44020;-69
2022/06/28 13:07:41;;;;;;;2.80;2.60;;;22.30;74.20;;;;;;5067856;28;43435;-70
2022/06/28 13:10:10;;;;;;;2.57;2.37;;;22.30;74.20;;;;;;5067410;28;43968;-70
2022/06/28 13:12:38;;;;;;;3.00;2.70;;;22.30;74.80;;;;;;5067586;28;44020;-69
2022/06/28 13:15:07;;;;;;;2.60;2.40;;;22.40;74.70;;;;;;5067346;28;43851;-70
2022/06/28 13:17:35;;;;;;;2.80;2.60;;;22.50;74.20;;;;;;5067812;28;43987;-69
2022/06/28 13:20:06;;;;;;;2.20;2.10;;;22.70;73.80;;;;;;5067207;28;43748;-70
2022/06/28 13:22:54;;;;;;;2.50;2.30;;;22.80;73.30;;;;;;5067052;28;43995;-71